sensor_id;sensor_type;location;lat;lon;timestamp;temperature;humidity
13433;DHT22;6789;47.678;9.158;2022-12-07T00:03:14;4.00;99.90
13433;DHT22;6789;47.678;9.158;2022-12-07T00:08:05;4.00;99.90
13433;DHT22;6789;47.678;9.158;2022-12-07T00:12:57;4.00;99.90
13433;DHT22;6789;47.678;9.158;2022-12-07T00:17:49;4.00;99.90
13433;DHT22;6789;47.678;9.158;2022-12-07T00:22:41;4.00;99.90
13433;DHT22;6789;47.678;9.158;2022-12-07T00:27:32;4.10;99.90
13433;DHT22;6789;47.678;9.158;2022-12-07T00:32:24;4.10;99.90
13433;DHT22;6789;47.678;9.158;2022-12-07T00:37:16;4.00;99.90
13433;DHT22;6789;47.678;9.158;2022-12-07T00:42:07;4.00;99.90
13433;DHT22;6789;47.678;9.158;2022-12-07T00:46:59;4.00;99.90
13433;DHT22;6789;47.678;9.158;2022-12-07T00:51:51;4.10;99.90
13433;DHT22;6789;47.678;9.158;2022-12-07T00:56:42;4.10;99.90
13433;DHT22;6789;47.678;9.158;2022-12-07T01:01:35;4.20;99.90
13433;DHT22;6789;47.678;9.158;2022-12-07T01:06:29;4.30;99.90
13433;DHT22;6789;47.678;9.158;2022-12-07T01:11:38;4.30;99.90
13433;DHT22;6789;47.678;9.158;2022-12-07T01:16:44;4.20;99.90
13433;DHT22;6789;47.678;9.158;2022-12-07T01:21:50;4.20;99.90
13433;DHT22;6789;47.678;9.158;2022-12-07T01:26:56;4.10;99.90
13433;DHT22;6789;47.678;9.158;2022-12-07T01:32:02;4.00;99.90
13433;DHT22;6789;47.678;9.158;2022-12-07T01:37:07;3.90;99.90
13433;DHT22;6789;47.678;9.158;2022-12-07T01:42:17;3.80;99.90
13433;DHT22;6789;47.678;9.158;2022-12-07T01:47:25;3.70;99.90
13433;DHT22;6789;47.678;9.158;2022-12-07T01:52:33;3.70;99.90
13433;DHT22;6789;47.678;9.158;2022-12-07T01:57:33;3.70;99.90
13433;DHT22;6789;47.678;9.158;2022-12-07T02:03:04;3.70;99.90
13433;DHT22;6789;47.678;9.158;2022-12-07T02:08:17;3.70;99.90
13433;DHT22;6789;47.678;9.158;2022-12-07T02:13:13;3.80;99.90
13433;DHT22;6789;47.678;9.158;2022-12-07T02:18:17;3.80;99.90
13433;DHT22;6789;47.678;9.158;2022-12-07T02:34:12;3.80;99.90
13433;DHT22;6789;47.678;9.158;2022-12-07T02:39:35;3.80;99.90
13433;DHT22;6789;47.678;9.158;2022-12-07T02:44:34;3.80;99.90
13433;DHT22;6789;47.678;9.158;2022-12-07T02:49:28;3.90;99.90
13433;DHT22;6789;47.678;9.158;2022-12-07T02:54:21;4.10;99.90
13433;DHT22;6789;47.678;9.158;2022-12-07T03:15:36;4.10;99.90
13433;DHT22;6789;47.678;9.158;2022-12-07T03:20:51;4.20;99.90
13433;DHT22;6789;47.678;9.158;2022-12-07T03:25:49;4.30;99.90
13433;DHT22;6789;47.678;9.158;2022-12-07T03:30:59;4.20;99.90
13433;DHT22;6789;47.678;9.158;2022-12-07T03:36:14;4.10;99.90
13433;DHT22;6789;47.678;9.158;2022-12-07T03:41:31;4.00;99.90
13433;DHT22;6789;47.678;9.158;2022-12-07T03:46:36;4.00;99.90
13433;DHT22;6789;47.678;9.158;2022-12-07T03:56:52;4.00;99.90
13433;DHT22;6789;47.678;9.158;2022-12-07T04:01:52;4.00;99.90
13433;DHT22;6789;47.678;9.158;2022-12-07T04:06:46;4.00;99.90
13433;DHT22;6789;47.678;9.158;2022-12-07T04:11:38;3.90;99.90
13433;DHT22;6789;47.678;9.158;2022-12-07T04:16:30;3.90;99.90
13433;DHT22;6789;47.678;9.158;2022-12-07T04:21:21;4.00;99.90
13433;DHT22;6789;47.678;9.158;2022-12-07T04:26:13;4.00;99.90
13433;DHT22;6789;47.678;9.158;2022-12-07T04:31:05;4.00;99.90
13433;DHT22;6789;47.678;9.158;2022-12-07T04:35:57;4.00;99.90
13433;DHT22;6789;47.678;9.158;2022-12-07T04:40:48;4.00;99.90
13433;DHT22;6789;47.678;9.158;2022-12-07T04:45:45;3.90;99.90
13433;DHT22;6789;47.678;9.158;2022-12-07T04:50:38;4.00;99.90
13433;DHT22;6789;47.678;9.158;2022-12-07T04:55:36;3.90;99.90
13433;DHT22;6789;47.678;9.158;2022-12-07T05:00:28;3.90;99.90
13433;DHT22;6789;47.678;9.158;2022-12-07T05:05:27;3.90;99.90
13433;DHT22;6789;47.678;9.158;2022-12-07T05:10:20;4.00;99.90
13433;DHT22;6789;47.678;9.158;2022-12-07T05:15:15;3.80;99.90
13433;DHT22;6789;47.678;9.158;2022-12-07T05:20:08;3.80;99.90
13433;DHT22;6789;47.678;9.158;2022-12-07T05:25:02;3.80;99.90
13433;DHT22;6789;47.678;9.158;2022-12-07T05:29:55;3.80;99.90
13433;DHT22;6789;47.678;9.158;2022-12-07T05:35:00;3.90;99.90
13433;DHT22;6789;47.678;9.158;2022-12-07T05:39:52;4.00;99.90
13433;DHT22;6789;47.678;9.158;2022-12-07T05:44:45;4.00;99.90
13433;DHT22;6789;47.678;9.158;2022-12-07T05:49:38;4.00;99.90
13433;DHT22;6789;47.678;9.158;2022-12-07T05:54:32;4.00;99.90
13433;DHT22;6789;47.678;9.158;2022-12-07T05:59:25;4.00;99.90
13433;DHT22;6789;47.678;9.158;2022-12-07T06:04:36;3.90;99.90
13433;DHT22;6789;47.678;9.158;2022-12-07T06:09:31;4.00;99.90
13433;DHT22;6789;47.678;9.158;2022-12-07T06:14:38;4.10;99.90
13433;DHT22;6789;47.678;9.158;2022-12-07T06:19:44;4.20;99.90
13433;DHT22;6789;47.678;9.158;2022-12-07T06:24:38;4.20;99.90
13433;DHT22;6789;47.678;9.158;2022-12-07T06:29:34;4.20;99.90
13433;DHT22;6789;47.678;9.158;2022-12-07T06:34:27;4.20;99.90
13433;DHT22;6789;47.678;9.158;2022-12-07T06:39:28;4.20;99.90
13433;DHT22;6789;47.678;9.158;2022-12-07T06:44:28;4.20;99.90
13433;DHT22;6789;47.678;9.158;2022-12-07T06:49:23;4.10;99.90
13433;DHT22;6789;47.678;9.158;2022-12-07T06:54:29;4.20;99.90
13433;DHT22;6789;47.678;9.158;2022-12-07T06:59:23;4.20;99.90
13433;DHT22;6789;47.678;9.158;2022-12-07T07:04:28;4.20;99.90
13433;DHT22;6789;47.678;9.158;2022-12-07T07:09:34;4.10;99.90
13433;DHT22;6789;47.678;9.158;2022-12-07T07:14:26;4.20;99.90
13433;DHT22;6789;47.678;9.158;2022-12-07T07:19:32;4.10;99.90
13433;DHT22;6789;47.678;9.158;2022-12-07T07:24:24;4.20;99.90
13433;DHT22;6789;47.678;9.158;2022-12-07T07:29:16;4.30;99.90
13433;DHT22;6789;47.678;9.158;2022-12-07T07:34:10;4.40;99.90
13433;DHT22;6789;47.678;9.158;2022-12-07T07:39:02;4.50;99.90
13433;DHT22;6789;47.678;9.158;2022-12-07T07:43:56;4.60;99.90
13433;DHT22;6789;47.678;9.158;2022-12-07T07:49:02;4.60;99.90
13433;DHT22;6789;47.678;9.158;2022-12-07T07:53:56;4.50;99.90
13433;DHT22;6789;47.678;9.158;2022-12-07T07:59:02;4.60;99.90
13433;DHT22;6789;47.678;9.158;2022-12-07T08:03:58;4.60;99.90
13433;DHT22;6789;47.678;9.158;2022-12-07T08:08:51;4.70;99.90
13433;DHT22;6789;47.678;9.158;2022-12-07T08:13:57;4.70;99.90
13433;DHT22;6789;47.678;9.158;2022-12-07T08:19:04;4.60;99.90
13433;DHT22;6789;47.678;9.158;2022-12-07T08:24:23;4.50;99.90
13433;DHT22;6789;47.678;9.158;2022-12-07T08:29:34;4.50;99.90
13433;DHT22;6789;47.678;9.158;2022-12-07T08:34:29;4.50;99.90
13433;DHT22;6789;47.678;9.158;2022-12-07T08:39:35;4.50;99.90
13433;DHT22;6789;47.678;9.158;2022-12-07T08:44:41;4.60;99.90
13433;DHT22;6789;47.678;9.158;2022-12-07T08:49:52;4.70;99.90
13433;DHT22;6789;47.678;9.158;2022-12-07T08:54:51;4.70;99.90
13433;DHT22;6789;47.678;9.158;2022-12-07T08:59:58;4.90;99.90
13433;DHT22;6789;47.678;9.158;2022-12-07T09:05:14;4.80;99.90
13433;DHT22;6789;47.678;9.158;2022-12-07T09:10:09;4.90;99.90
13433;DHT22;6789;47.678;9.158;2022-12-07T09:15:03;4.90;99.90
13433;DHT22;6789;47.678;9.158;2022-12-07T09:20:05;5.00;99.90
13433;DHT22;6789;47.678;9.158;2022-12-07T09:24:59;5.00;99.90
13433;DHT22;6789;47.678;9.158;2022-12-07T09:29:53;5.00;99.90
13433;DHT22;6789;47.678;9.158;2022-12-07T09:34:59;5.00;99.90
13433;DHT22;6789;47.678;9.158;2022-12-07T09:40:05;5.00;99.90
13433;DHT22;6789;47.678;9.158;2022-12-07T09:45:17;5.00;99.90
13433;DHT22;6789;47.678;9.158;2022-12-07T09:50:28;5.00;99.90
13433;DHT22;6789;47.678;9.158;2022-12-07T09:55:36;5.00;99.90
13433;DHT22;6789;47.678;9.158;2022-12-07T10:00:43;5.00;99.90
13433;DHT22;6789;47.678;9.158;2022-12-07T10:05:53;5.10;99.90
13433;DHT22;6789;47.678;9.158;2022-12-07T10:10:52;5.20;99.90
13433;DHT22;6789;47.678;9.158;2022-12-07T10:21:14;5.30;99.90
13433;DHT22;6789;47.678;9.158;2022-12-07T10:37:22;5.30;99.90
13433;DHT22;6789;47.678;9.158;2022-12-07T10:42:32;5.30;99.90
13433;DHT22;6789;47.678;9.158;2022-12-07T10:47:46;5.40;99.90
13433;DHT22;6789;47.678;9.158;2022-12-07T10:53:12;5.40;99.90
13433;DHT22;6789;47.678;9.158;2022-12-07T11:03:50;5.50;99.90
13433;DHT22;6789;47.678;9.158;2022-12-07T11:14:36;5.60;99.90
13433;DHT22;6789;47.678;9.158;2022-12-07T11:37:34;5.60;99.90
13433;DHT22;6789;47.678;9.158;2022-12-07T11:53:56;6.00;99.90
13433;DHT22;6789;47.678;9.158;2022-12-07T11:59:17;6.10;99.90
13433;DHT22;6789;47.678;9.158;2022-12-07T12:04:52;6.10;99.90
13433;DHT22;6789;47.678;9.158;2022-12-07T12:09:57;6.10;99.90
13433;DHT22;6789;47.678;9.158;2022-12-07T12:21:00;6.40;99.90
13433;DHT22;6789;47.678;9.158;2022-12-07T12:26:00;6.40;99.90
13433;DHT22;6789;47.678;9.158;2022-12-07T12:36:44;6.40;99.90
13433;DHT22;6789;47.678;9.158;2022-12-07T12:47:00;6.30;99.90
13433;DHT22;6789;47.678;9.158;2022-12-07T12:57:40;6.40;99.90
13433;DHT22;6789;47.678;9.158;2022-12-07T13:02:47;6.60;99.90
13433;DHT22;6789;47.678;9.158;2022-12-07T13:18:45;6.80;99.90
13433;DHT22;6789;47.678;9.158;2022-12-07T13:29:13;6.70;99.90
13433;DHT22;6789;47.678;9.158;2022-12-07T13:34:34;6.60;99.90
13433;DHT22;6789;47.678;9.158;2022-12-07T13:39:59;6.60;99.90
13433;DHT22;6789;47.678;9.158;2022-12-07T13:45:25;6.60;99.90
13433;DHT22;6789;47.678;9.158;2022-12-07T13:50:56;6.60;99.90
13433;DHT22;6789;47.678;9.158;2022-12-07T13:55:53;6.50;99.90
13433;DHT22;6789;47.678;9.158;2022-12-07T14:01:00;6.50;99.90
13433;DHT22;6789;47.678;9.158;2022-12-07T14:11:20;6.60;99.90
13433;DHT22;6789;47.678;9.158;2022-12-07T14:16:34;6.50;99.90
13433;DHT22;6789;47.678;9.158;2022-12-07T14:21:42;6.40;99.90
13433;DHT22;6789;47.678;9.158;2022-12-07T14:26:50;6.30;99.90
13433;DHT22;6789;47.678;9.158;2022-12-07T14:31:58;6.20;99.90
13433;DHT22;6789;47.678;9.158;2022-12-07T14:37:16;6.30;99.90
13433;DHT22;6789;47.678;9.158;2022-12-07T14:42:24;6.30;99.90
13433;DHT22;6789;47.678;9.158;2022-12-07T14:47:35;6.10;99.90
13433;DHT22;6789;47.678;9.158;2022-12-07T14:52:44;6.10;99.90
13433;DHT22;6789;47.678;9.158;2022-12-07T14:57:54;5.90;99.90
13433;DHT22;6789;47.678;9.158;2022-12-07T15:02:53;5.80;99.90
13433;DHT22;6789;47.678;9.158;2022-12-07T15:07:59;5.70;99.90
13433;DHT22;6789;47.678;9.158;2022-12-07T15:13:06;5.60;99.90
13433;DHT22;6789;47.678;9.158;2022-12-07T15:18:42;5.60;99.90
13433;DHT22;6789;47.678;9.158;2022-12-07T15:23:49;5.60;99.90
13433;DHT22;6789;47.678;9.158;2022-12-07T15:28:55;5.60;99.90
13433;DHT22;6789;47.678;9.158;2022-12-07T15:34:15;5.50;99.90
13433;DHT22;6789;47.678;9.158;2022-12-07T15:39:21;5.50;99.90
13433;DHT22;6789;47.678;9.158;2022-12-07T15:44:28;5.40;99.90
13433;DHT22;6789;47.678;9.158;2022-12-07T15:49:53;5.30;99.90
13433;DHT22;6789;47.678;9.158;2022-12-07T15:55:08;5.30;99.90
13433;DHT22;6789;47.678;9.158;2022-12-07T16:00:15;5.30;99.90
13433;DHT22;6789;47.678;9.158;2022-12-07T16:05:22;5.10;99.90
13433;DHT22;6789;47.678;9.158;2022-12-07T16:10:28;5.00;99.90
13433;DHT22;6789;47.678;9.158;2022-12-07T16:15:40;5.00;99.90
13433;DHT22;6789;47.678;9.158;2022-12-07T16:20:33;5.00;99.90
13433;DHT22;6789;47.678;9.158;2022-12-07T16:25:39;4.90;99.90
13433;DHT22;6789;47.678;9.158;2022-12-07T16:30:32;4.90;99.90
13433;DHT22;6789;47.678;9.158;2022-12-07T16:35:39;4.80;99.90
13433;DHT22;6789;47.678;9.158;2022-12-07T16:40:37;4.80;99.90
13433;DHT22;6789;47.678;9.158;2022-12-07T16:45:45;4.80;99.90
13433;DHT22;6789;47.678;9.158;2022-12-07T16:50:53;4.70;99.90
13433;DHT22;6789;47.678;9.158;2022-12-07T16:56:02;4.80;99.90
13433;DHT22;6789;47.678;9.158;2022-12-07T17:01:14;4.70;99.90
13433;DHT22;6789;47.678;9.158;2022-12-07T17:06:27;4.70;99.90
13433;DHT22;6789;47.678;9.158;2022-12-07T17:11:35;4.70;99.90
13433;DHT22;6789;47.678;9.158;2022-12-07T17:17:37;4.50;99.90
13433;DHT22;6789;47.678;9.158;2022-12-07T17:22:45;4.50;99.90
13433;DHT22;6789;47.678;9.158;2022-12-07T17:27:51;4.50;99.90
13433;DHT22;6789;47.678;9.158;2022-12-07T17:32:57;4.50;99.90
13433;DHT22;6789;47.678;9.158;2022-12-07T17:38:03;4.40;99.90
13433;DHT22;6789;47.678;9.158;2022-12-07T17:43:09;4.50;99.90
13433;DHT22;6789;47.678;9.158;2022-12-07T17:48:14;4.40;99.90
13433;DHT22;6789;47.678;9.158;2022-12-07T17:53:20;4.40;99.90
13433;DHT22;6789;47.678;9.158;2022-12-07T17:58:14;4.40;99.90
13433;DHT22;6789;47.678;9.158;2022-12-07T18:03:20;4.20;99.90
13433;DHT22;6789;47.678;9.158;2022-12-07T18:08:26;4.10;99.90
13433;DHT22;6789;47.678;9.158;2022-12-07T18:13:33;4.20;99.90
13433;DHT22;6789;47.678;9.158;2022-12-07T18:18:43;4.20;99.90
13433;DHT22;6789;47.678;9.158;2022-12-07T18:23:52;4.20;99.90
13433;DHT22;6789;47.678;9.158;2022-12-07T18:28:46;4.20;99.90
13433;DHT22;6789;47.678;9.158;2022-12-07T18:33:52;4.10;99.90
13433;DHT22;6789;47.678;9.158;2022-12-07T18:39:03;3.90;99.90
13433;DHT22;6789;47.678;9.158;2022-12-07T18:43:56;3.80;99.90
13433;DHT22;6789;47.678;9.158;2022-12-07T18:49:03;3.80;99.90
13433;DHT22;6789;47.678;9.158;2022-12-07T18:53:58;3.70;99.90
13433;DHT22;6789;47.678;9.158;2022-12-07T18:59:06;3.70;99.90
13433;DHT22;6789;47.678;9.158;2022-12-07T19:04:21;3.70;99.90
13433;DHT22;6789;47.678;9.158;2022-12-07T19:09:57;3.60;99.90
13433;DHT22;6789;47.678;9.158;2022-12-07T19:15:03;3.60;99.90
13433;DHT22;6789;47.678;9.158;2022-12-07T19:20:12;3.60;99.90
13433;DHT22;6789;47.678;9.158;2022-12-07T19:25:20;3.60;99.90
13433;DHT22;6789;47.678;9.158;2022-12-07T19:30:16;3.60;99.90
13433;DHT22;6789;47.678;9.158;2022-12-07T19:35:09;3.60;99.90
13433;DHT22;6789;47.678;9.158;2022-12-07T19:40:03;3.50;99.90
13433;DHT22;6789;47.678;9.158;2022-12-07T19:45:10;3.40;99.90
13433;DHT22;6789;47.678;9.158;2022-12-07T19:50:03;3.30;99.90
13433;DHT22;6789;47.678;9.158;2022-12-07T19:54:57;3.30;99.90
13433;DHT22;6789;47.678;9.158;2022-12-07T19:59:57;3.30;99.90
13433;DHT22;6789;47.678;9.158;2022-12-07T20:05:04;3.10;99.90
13433;DHT22;6789;47.678;9.158;2022-12-07T20:10:10;3.00;99.90
13433;DHT22;6789;47.678;9.158;2022-12-07T20:15:16;2.90;99.90
13433;DHT22;6789;47.678;9.158;2022-12-07T20:20:22;2.90;99.90
13433;DHT22;6789;47.678;9.158;2022-12-07T20:25:28;2.80;99.90
13433;DHT22;6789;47.678;9.158;2022-12-07T20:30:33;2.70;99.90
13433;DHT22;6789;47.678;9.158;2022-12-07T20:35:26;2.80;99.90
13433;DHT22;6789;47.678;9.158;2022-12-07T20:40:32;2.90;99.90
13433;DHT22;6789;47.678;9.158;2022-12-07T20:45:24;2.80;99.90
13433;DHT22;6789;47.678;9.158;2022-12-07T20:50:17;2.60;99.90
13433;DHT22;6789;47.678;9.158;2022-12-07T20:55:23;2.60;99.90
13433;DHT22;6789;47.678;9.158;2022-12-07T21:00:19;2.60;99.90
13433;DHT22;6789;47.678;9.158;2022-12-07T21:05:24;2.60;99.90
13433;DHT22;6789;47.678;9.158;2022-12-07T21:10:24;2.80;99.90
13433;DHT22;6789;47.678;9.158;2022-12-07T21:15:30;2.90;99.90
13433;DHT22;6789;47.678;9.158;2022-12-07T21:20:35;2.70;99.90
13433;DHT22;6789;47.678;9.158;2022-12-07T21:25:41;2.70;99.90
13433;DHT22;6789;47.678;9.158;2022-12-07T21:30:47;2.70;99.90
13433;DHT22;6789;47.678;9.158;2022-12-07T21:36:02;2.70;99.90
13433;DHT22;6789;47.678;9.158;2022-12-07T21:41:14;2.70;99.90
13433;DHT22;6789;47.678;9.158;2022-12-07T21:46:19;2.80;99.90
13433;DHT22;6789;47.678;9.158;2022-12-07T21:51:28;2.80;99.90
13433;DHT22;6789;47.678;9.158;2022-12-07T21:56:23;2.90;99.90
13433;DHT22;6789;47.678;9.158;2022-12-07T22:01:25;3.00;99.90
13433;DHT22;6789;47.678;9.158;2022-12-07T22:06:35;3.00;99.90
13433;DHT22;6789;47.678;9.158;2022-12-07T22:11:29;3.00;99.90
13433;DHT22;6789;47.678;9.158;2022-12-07T22:16:35;3.00;99.90
13433;DHT22;6789;47.678;9.158;2022-12-07T22:21:35;3.00;99.90
13433;DHT22;6789;47.678;9.158;2022-12-07T22:26:41;2.80;99.90
13433;DHT22;6789;47.678;9.158;2022-12-07T22:31:35;2.80;99.90
13433;DHT22;6789;47.678;9.158;2022-12-07T22:36:43;2.70;99.90
13433;DHT22;6789;47.678;9.158;2022-12-07T22:41:36;2.70;99.90
13433;DHT22;6789;47.678;9.158;2022-12-07T22:46:42;2.50;99.90
13433;DHT22;6789;47.678;9.158;2022-12-07T22:51:49;2.50;99.90
13433;DHT22;6789;47.678;9.158;2022-12-07T22:56:42;2.60;99.90
13433;DHT22;6789;47.678;9.158;2022-12-07T23:01:49;2.70;99.90
13433;DHT22;6789;47.678;9.158;2022-12-07T23:06:42;2.60;99.90
13433;DHT22;6789;47.678;9.158;2022-12-07T23:11:48;2.60;99.90
13433;DHT22;6789;47.678;9.158;2022-12-07T23:17:00;2.60;99.90
13433;DHT22;6789;47.678;9.158;2022-12-07T23:22:07;2.70;99.90
13433;DHT22;6789;47.678;9.158;2022-12-07T23:27:06;2.60;99.90
13433;DHT22;6789;47.678;9.158;2022-12-07T23:32:01;2.50;99.90
13433;DHT22;6789;47.678;9.158;2022-12-07T23:37:07;2.60;99.90
13433;DHT22;6789;47.678;9.158;2022-12-07T23:42:00;2.60;99.90
13433;DHT22;6789;47.678;9.158;2022-12-07T23:47:06;2.70;99.90
13433;DHT22;6789;47.678;9.158;2022-12-07T23:51:58;2.80;99.90
13433;DHT22;6789;47.678;9.158;2022-12-07T23:57:04;2.70;99.90
